createdAt,value
2017-07-21T00:01:55.496Z,7.15
2017-07-21T00:04:22.693Z,7.45
2017-07-21T00:06:49.242Z,7.15
2017-07-21T00:09:15.904Z,6.93
2017-07-21T00:11:42.322Z,7.05
2017-07-21T00:14:08.817Z,6.93
2017-07-21T00:16:35.246Z,7.15
2017-07-21T00:19:01.694Z,7.20
2017-07-21T00:21:28.131Z,7.60
2017-07-21T00:23:54.571Z,7.30
2017-07-21T00:26:21.808Z,7.40
2017-07-21T00:28:49.000Z,7.18
2017-07-21T00:31:15.447Z,7.23
2017-07-21T00:33:42.409Z,7.37
2017-07-21T00:36:08.823Z,8.07
2017-07-21T00:38:35.792Z,7.70
2017-07-21T00:41:02.236Z,7.12
2017-07-21T00:43:28.661Z,7.20
2017-07-21T00:45:55.103Z,7.50
2017-07-21T00:48:21.559Z,7.47
2017-07-21T00:50:47.990Z,7.30
2017-07-21T00:53:15.192Z,7.50
2017-07-21T00:55:41.627Z,7.45
2017-07-21T00:58:08.792Z,7.53
2017-07-21T01:00:36.086Z,7.12
2017-07-21T01:03:02.972Z,7.15
2017-07-21T01:05:29.432Z,7.03
2017-07-21T01:07:55.849Z,7.05
2017-07-21T01:10:23.142Z,8.02
2017-07-21T01:12:49.612Z,7.80
2017-07-21T01:15:16.153Z,7.35
2017-07-21T01:17:43.313Z,8.20
2017-07-21T01:20:10.515Z,7.87
2017-07-21T01:22:36.955Z,7.50
2017-07-21T01:25:03.375Z,8.00
2017-07-21T01:27:29.807Z,7.53
2017-07-21T01:29:56.235Z,8.00
2017-07-21T01:32:22.701Z,7.50
2017-07-21T01:34:49.181Z,7.70
2017-07-21T01:37:15.693Z,7.53
2017-07-21T01:39:42.396Z,7.97
2017-07-21T01:42:08.874Z,8.40
2017-07-21T01:44:35.323Z,8.07
2017-07-21T01:47:01.932Z,7.60
2017-07-21T01:49:28.369Z,7.90
2017-07-21T01:51:55.656Z,7.60
2017-07-21T01:54:22.152Z,7.60
2017-07-21T01:56:48.664Z,7.75
2017-07-21T01:59:15.847Z,7.57
2017-07-21T02:01:42.344Z,7.70
2017-07-21T02:04:08.807Z,7.50
2017-07-21T02:06:35.213Z,8.00
2017-07-21T02:09:01.822Z,7.72
2017-07-21T02:11:28.313Z,7.80
2017-07-21T02:13:55.495Z,7.82
2017-07-21T02:16:21.967Z,8.15
2017-07-21T02:18:48.395Z,7.50
2017-07-21T02:21:15.579Z,7.83
2017-07-21T02:23:42.757Z,8.45
2017-07-21T02:26:09.171Z,8.68
2017-07-21T02:28:35.587Z,8.20
2017-07-21T02:31:02.065Z,8.23
2017-07-21T02:33:28.497Z,8.27
2017-07-21T02:35:55.591Z,8.45
2017-07-21T02:38:22.005Z,8.25
2017-07-21T02:40:48.418Z,9.30
2017-07-21T02:43:14.892Z,9.20
2017-07-21T02:45:41.382Z,8.90
2017-07-21T02:48:07.810Z,9.37
2017-07-21T02:50:35.013Z,8.70
2017-07-21T02:53:01.457Z,8.32
2017-07-21T02:55:28.608Z,8.45
2017-07-21T02:57:56.284Z,8.40
2017-07-21T03:00:22.748Z,7.32
2017-07-21T03:02:49.948Z,7.87
2017-07-21T03:05:16.370Z,7.87
2017-07-21T03:07:42.821Z,7.90
2017-07-21T03:10:09.299Z,8.00
2017-07-21T03:12:36.521Z,9.55
2017-07-21T03:15:02.977Z,8.10
2017-07-21T03:17:29.419Z,8.07
2017-07-21T03:19:55.855Z,8.40
2017-07-21T03:22:22.404Z,8.52
2017-07-21T03:24:49.625Z,8.20
2017-07-21T03:27:16.112Z,8.55
2017-07-21T03:29:42.525Z,9.00
2017-07-21T03:32:08.973Z,8.35
2017-07-21T03:34:35.513Z,8.80
2017-07-21T03:37:01.962Z,9.10
2017-07-21T03:39:28.412Z,13.70
2017-07-21T03:41:55.588Z,8.87
2017-07-21T03:44:22.070Z,8.60
2017-07-21T03:46:48.470Z,8.55
2017-07-21T03:49:14.924Z,8.90
2017-07-21T03:51:41.726Z,8.90
2017-07-21T03:54:08.908Z,7.95
2017-07-21T03:56:35.360Z,8.90
2017-07-21T03:59:01.796Z,8.30
2017-07-21T04:01:28.971Z,7.97
2017-07-21T04:03:56.153Z,8.70
2017-07-21T04:06:23.309Z,8.73
2017-07-21T04:08:50.490Z,8.02
2017-07-21T04:11:17.685Z,8.95
2017-07-21T04:13:44.181Z,8.20
2017-07-21T04:16:10.595Z,8.23
2017-07-21T04:18:37.247Z,8.88
2017-07-21T04:21:03.711Z,8.30
2017-07-21T04:23:30.131Z,8.57
2017-07-21T04:25:56.543Z,9.05
2017-07-21T04:28:22.981Z,9.20
2017-07-21T04:30:49.393Z,8.90
2017-07-21T04:33:15.862Z,9.05
2017-07-21T04:35:43.156Z,8.40
2017-07-21T04:38:09.588Z,9.00
2017-07-21T04:40:36.026Z,9.77
2017-07-21T04:43:02.462Z,8.90
2017-07-21T04:45:28.918Z,9.70
2017-07-21T04:47:55.439Z,10.38
2017-07-21T04:50:21.916Z,8.00
2017-07-21T04:52:48.344Z,6.70
2017-07-21T04:55:14.819Z,7.30
2017-07-21T04:57:41.281Z,7.60
2017-07-21T05:00:07.828Z,7.20
2017-07-21T05:02:34.379Z,7.20
2017-07-21T05:05:00.841Z,8.32
2017-07-21T05:07:27.270Z,7.65
2017-07-21T05:09:54.570Z,7.30
2017-07-21T05:12:21.021Z,7.50
2017-07-21T05:14:47.483Z,6.80
2017-07-21T05:17:14.409Z,7.80
2017-07-21T05:19:40.862Z,7.30
2017-07-21T05:22:07.315Z,7.82
2017-07-21T05:24:33.746Z,7.35
2017-07-21T05:27:00.476Z,7.90
2017-07-21T05:29:26.912Z,7.45
2017-07-21T05:31:54.086Z,7.43
2017-07-21T05:34:21.296Z,9.45
2017-07-21T05:36:47.836Z,8.38
2017-07-21T05:39:14.397Z,8.27
2017-07-21T05:41:40.856Z,8.00
2017-07-21T05:44:07.310Z,7.53
2017-07-21T05:46:33.784Z,7.12
2017-07-21T05:49:00.190Z,7.87
2017-07-21T05:51:26.619Z,7.50
2017-07-21T05:53:53.036Z,7.45
2017-07-21T05:56:19.496Z,8.02
2017-07-21T05:58:45.938Z,12.02
2017-07-21T06:01:13.183Z,8.10
2017-07-21T06:03:40.527Z,7.62
2017-07-21T06:06:06.953Z,8.20
2017-07-21T06:08:33.425Z,9.00
2017-07-21T06:11:00.547Z,8.90
2017-07-21T06:13:27.013Z,9.80
2017-07-21T06:15:53.467Z,8.65
2017-07-21T06:18:20.625Z,7.90
2017-07-21T06:20:47.097Z,8.70
2017-07-21T06:23:14.263Z,8.82
2017-07-21T06:25:40.711Z,9.80
2017-07-21T06:28:07.897Z,9.60
2017-07-21T06:30:34.356Z,10.20
2017-07-21T06:33:01.526Z,10.07
2017-07-21T06:35:28.819Z,10.90
2017-07-21T06:37:55.377Z,11.10
2017-07-21T06:40:21.842Z,12.37
2017-07-21T06:42:48.272Z,12.90
2017-07-21T06:45:15.462Z,13.40
2017-07-21T06:47:41.908Z,13.55
2017-07-21T06:50:09.098Z,12.63
2017-07-21T06:52:35.540Z,11.55
2017-07-21T06:55:02.767Z,11.30
2017-07-21T06:57:29.234Z,14.40
2017-07-21T06:59:55.707Z,13.73
2017-07-21T07:02:22.173Z,14.40
2017-07-21T07:04:49.378Z,13.25
2017-07-21T07:07:15.924Z,12.63
2017-07-21T07:09:42.520Z,12.20
2017-07-21T07:12:08.989Z,11.00
2017-07-21T07:14:35.459Z,10.10
2017-07-21T07:17:01.879Z,10.43
2017-07-21T07:19:28.299Z,10.50
2017-07-21T07:21:54.759Z,10.18
2017-07-21T07:24:21.239Z,8.43
2017-07-21T07:26:48.289Z,9.50
2017-07-21T07:29:14.724Z,10.20
2017-07-21T07:31:41.960Z,9.70
2017-07-21T07:34:23.310Z,9.90
2017-07-21T07:36:49.863Z,9.75
2017-07-21T07:39:16.294Z,10.93
2017-07-21T07:41:43.498Z,12.10
2017-07-21T07:44:10.048Z,12.77
2017-07-21T07:46:36.482Z,12.35
2017-07-21T07:49:02.912Z,12.90
2017-07-21T07:51:29.377Z,12.18
2017-07-21T07:53:55.829Z,12.48
2017-07-21T07:56:22.415Z,13.43
2017-07-21T07:58:49.563Z,13.15
2017-07-21T08:01:16.003Z,11.82
2017-07-21T08:03:42.437Z,11.90
2017-07-21T08:06:08.877Z,11.70
2017-07-21T08:08:35.739Z,11.00
2017-07-21T08:11:02.773Z,10.70
2017-07-21T08:13:29.965Z,10.90
2017-07-21T08:15:57.178Z,10.35
2017-07-21T08:18:23.582Z,11.65
2017-07-21T08:20:50.104Z,10.55
2017-07-21T08:23:16.554Z,11.20
2017-07-21T08:25:42.984Z,11.32
2017-07-21T08:28:09.461Z,10.57
2017-07-21T08:30:35.896Z,10.30
2017-07-21T08:33:02.353Z,11.30
2017-07-21T08:35:28.902Z,11.63
2017-07-21T08:37:55.356Z,11.00
2017-07-21T08:40:22.562Z,11.60
2017-07-21T08:42:49.026Z,12.70
2017-07-21T08:45:15.474Z,12.20
2017-07-21T08:47:41.914Z,12.33
2017-07-21T08:50:08.353Z,11.80
2017-07-21T08:52:34.836Z,13.50
2017-07-21T08:55:01.357Z,13.02
2017-07-21T08:57:28.520Z,14.23
2017-07-21T08:59:55.709Z,13.62
2017-07-21T09:02:22.898Z,12.68
2017-07-21T09:04:49.381Z,14.30
2017-07-21T09:07:15.837Z,14.77
2017-07-21T09:09:42.361Z,13.15
2017-07-21T09:12:08.809Z,12.23
2017-07-21T09:14:35.934Z,12.80
2017-07-21T09:17:02.382Z,12.43
2017-07-21T09:19:28.898Z,12.70
2017-07-21T09:21:55.354Z,12.07
2017-07-21T09:24:21.824Z,11.85
2017-07-21T09:26:48.252Z,11.35
2017-07-21T09:29:15.410Z,11.97
2017-07-21T09:31:41.852Z,10.40
2017-07-21T09:34:08.331Z,10.90
2017-07-21T09:36:35.820Z,10.63
2017-07-21T09:39:03.210Z,9.52
2017-07-21T09:41:29.766Z,7.70
2017-07-21T09:43:56.235Z,8.00
2017-07-21T09:46:22.715Z,7.20
2017-07-21T09:48:50.487Z,7.40
2017-07-21T09:51:16.955Z,7.20
2017-07-21T09:53:43.480Z,7.50
2017-07-21T09:56:09.919Z,7.70
2017-07-21T09:58:37.111Z,7.43
2017-07-21T10:01:03.525Z,6.53
2017-07-21T10:03:29.977Z,6.07
2017-07-21T10:05:56.463Z,8.00
2017-07-21T10:08:23.658Z,6.70
2017-07-21T10:10:50.141Z,6.25
2017-07-21T10:13:17.073Z,6.90
2017-07-21T10:15:43.583Z,6.78
2017-07-21T10:18:10.062Z,6.60
2017-07-21T10:20:37.362Z,5.55
2017-07-21T10:23:03.804Z,6.15
2017-07-21T10:25:31.052Z,6.30
2017-07-21T10:27:57.560Z,6.78
2017-07-21T10:30:24.656Z,6.40
2017-07-21T10:32:51.707Z,6.95
2017-07-21T10:35:18.251Z,5.10
2017-07-21T10:37:44.701Z,5.60
2017-07-21T10:40:11.157Z,6.32
2017-07-21T10:42:38.330Z,6.30
2017-07-21T10:45:04.830Z,5.80
2017-07-21T10:47:31.276Z,5.30
2017-07-21T10:49:57.801Z,5.53
2017-07-21T10:52:24.235Z,4.90
2017-07-21T10:54:50.677Z,5.50
2017-07-21T10:57:18.034Z,5.40
2017-07-21T10:59:44.496Z,5.05
2017-07-21T11:02:10.969Z,5.30
2017-07-21T11:04:38.274Z,4.97
2017-07-21T11:07:04.686Z,4.97
2017-07-21T11:09:31.510Z,4.70
2017-07-21T11:11:57.932Z,4.70
2017-07-21T11:14:25.149Z,5.37
2017-07-21T11:16:51.606Z,4.85
2017-07-21T11:19:18.046Z,4.85
2017-07-21T11:21:44.478Z,4.80
2017-07-21T11:24:11.767Z,4.33
2017-07-21T11:26:38.239Z,4.50
2017-07-21T11:29:04.691Z,5.00
2017-07-21T11:31:31.115Z,4.60
2017-07-21T11:33:57.608Z,3.97
2017-07-21T11:36:24.077Z,4.18
2017-07-21T11:38:50.608Z,4.10
2017-07-21T11:41:17.041Z,4.03
2017-07-21T11:43:43.495Z,4.13
2017-07-21T11:46:10.387Z,4.20
2017-07-21T11:48:37.202Z,4.20
2017-07-21T11:51:04.254Z,4.30
2017-07-21T11:53:30.766Z,4.10
2017-07-21T11:55:57.927Z,4.10
2017-07-21T11:58:25.224Z,4.30
2017-07-21T12:00:51.685Z,4.00
2017-07-21T12:03:18.154Z,4.32
2017-07-21T12:05:44.700Z,4.28
2017-07-21T12:08:11.132Z,4.00
2017-07-21T12:10:38.348Z,4.53
2017-07-21T12:13:04.806Z,4.07
2017-07-21T12:15:31.628Z,6.18
2017-07-21T12:17:59.133Z,4.12
2017-07-21T12:20:25.675Z,5.13
2017-07-21T12:22:52.959Z,4.43
2017-07-21T12:25:19.419Z,4.12
2017-07-21T12:27:45.869Z,4.32
2017-07-21T12:30:12.297Z,3.95
2017-07-21T12:32:38.734Z,4.40
2017-07-21T12:35:05.200Z,4.40
2017-07-21T12:37:31.633Z,4.25
2017-07-21T12:39:58.091Z,4.53
2017-07-21T12:42:24.520Z,4.47
2017-07-21T12:44:50.991Z,4.60
2017-07-21T12:47:17.519Z,4.10
2017-07-21T12:49:44.705Z,4.28
2017-07-21T12:52:11.123Z,4.50
2017-07-21T12:54:37.527Z,4.10
2017-07-21T12:57:03.976Z,3.90
2017-07-21T12:59:30.517Z,4.20
2017-07-21T13:01:56.975Z,4.05
2017-07-21T13:04:23.406Z,4.60
2017-07-21T13:06:49.988Z,4.30
2017-07-21T13:09:16.445Z,4.22
2017-07-21T13:11:42.886Z,5.77
2017-07-21T13:14:10.176Z,4.07
2017-07-21T13:16:36.614Z,4.70
2017-07-21T13:19:03.905Z,4.30
2017-07-21T13:21:31.085Z,4.40
2017-07-21T13:23:57.523Z,4.70
2017-07-21T13:26:24.033Z,4.45
2017-07-21T13:28:50.549Z,4.37
2017-07-21T13:31:17.637Z,4.10
2017-07-21T13:33:44.069Z,4.18
2017-07-21T13:36:11.277Z,4.40
2017-07-21T13:38:37.681Z,4.40
2017-07-21T13:41:04.857Z,4.18
2017-07-21T13:43:32.105Z,5.37
2017-07-21T13:45:58.514Z,4.40
2017-07-21T13:48:25.115Z,4.00
2017-07-21T13:50:51.562Z,4.40
2017-07-21T13:53:18.010Z,4.53
2017-07-21T13:55:44.444Z,4.60
2017-07-21T13:58:10.894Z,4.20
2017-07-21T14:00:37.358Z,4.47
2017-07-21T14:03:03.820Z,4.10
2017-07-21T14:05:30.358Z,4.70
2017-07-21T14:07:56.812Z,4.22
2017-07-21T14:10:24.090Z,4.65
2017-07-21T14:12:50.526Z,4.62
2017-07-21T14:15:17.712Z,5.22
2017-07-21T14:17:44.173Z,4.28
2017-07-21T14:20:11.448Z,4.45
2017-07-21T14:22:37.898Z,4.50
2017-07-21T14:25:05.118Z,4.43
2017-07-21T14:27:31.559Z,3.78
2017-07-21T14:29:58.025Z,4.70
2017-07-21T14:32:24.489Z,4.90
2017-07-21T14:34:51.455Z,4.60
2017-07-21T14:37:17.877Z,4.40
2017-07-21T14:39:44.325Z,4.30
2017-07-21T14:42:10.883Z,4.25
2017-07-21T14:44:37.333Z,5.00
2017-07-21T14:47:04.498Z,4.20
2017-07-21T14:49:31.786Z,4.50
2017-07-21T14:51:58.239Z,4.30
2017-07-21T14:54:25.450Z,4.60
2017-07-21T14:56:51.894Z,4.70
2017-07-21T14:59:18.306Z,5.00
2017-07-21T15:01:45.509Z,5.57
2017-07-21T15:04:12.058Z,5.35
2017-07-21T15:06:38.618Z,4.40
2017-07-21T15:09:05.175Z,4.40
2017-07-21T15:11:31.674Z,4.80
2017-07-21T15:13:58.105Z,4.80
2017-07-21T15:16:24.552Z,4.55
2017-07-21T15:18:51.043Z,4.75
2017-07-21T15:21:17.662Z,4.30
2017-07-21T15:23:44.118Z,4.47
2017-07-21T15:26:10.611Z,4.60
2017-07-21T15:28:37.031Z,4.70
2017-07-21T15:31:03.466Z,4.20
2017-07-21T15:33:30.657Z,5.20
2017-07-21T15:35:57.940Z,4.87
2017-07-21T15:38:24.391Z,4.70
2017-07-21T15:40:50.897Z,4.30
2017-07-21T15:43:17.375Z,4.40
2017-07-21T15:45:43.967Z,4.78
2017-07-21T15:48:10.447Z,4.50
2017-07-21T15:50:36.935Z,4.80
2017-07-21T15:53:03.417Z,4.40
2017-07-21T15:55:30.709Z,4.55
2017-07-21T15:57:57.205Z,4.40
2017-07-21T16:00:23.664Z,4.60
2017-07-21T16:02:50.896Z,4.93
2017-07-21T16:05:17.454Z,4.47
2017-07-21T16:07:43.894Z,4.80
2017-07-21T16:10:11.118Z,4.60
2017-07-21T16:12:37.640Z,4.35
2017-07-21T16:15:04.069Z,4.47
2017-07-21T16:17:30.510Z,4.33
2017-07-21T16:19:56.965Z,4.53
2017-07-21T16:22:23.396Z,4.50
2017-07-21T16:24:49.843Z,4.47
2017-07-21T16:27:16.377Z,4.60
2017-07-21T16:29:42.833Z,4.03
2017-07-21T16:32:09.289Z,4.40
2017-07-21T16:34:35.745Z,4.85
2017-07-21T16:37:02.202Z,4.70
2017-07-21T16:39:29.410Z,5.10
2017-07-21T16:41:56.440Z,4.62
2017-07-21T16:44:23.602Z,5.20
2017-07-21T16:46:50.769Z,4.50
2017-07-21T16:49:17.942Z,4.90
2017-07-21T16:51:45.130Z,4.90
2017-07-21T16:54:12.284Z,4.60
2017-07-21T16:56:38.708Z,5.20
2017-07-21T16:59:05.145Z,5.70
2017-07-21T17:01:31.647Z,6.00
2017-07-21T17:03:58.188Z,5.10
2017-07-21T17:06:25.106Z,5.40
2017-07-21T17:08:52.146Z,5.40
2017-07-21T17:11:19.440Z,5.32
2017-07-21T17:13:45.906Z,5.60
2017-07-21T17:16:12.457Z,5.22
2017-07-21T17:18:38.915Z,5.30
2017-07-21T17:21:05.374Z,5.18
2017-07-21T17:23:31.807Z,4.90
2017-07-21T17:25:59.031Z,5.40
2017-07-21T17:28:25.448Z,4.90
2017-07-21T17:30:52.620Z,5.10
2017-07-21T17:33:19.797Z,5.00
2017-07-21T17:35:46.270Z,5.00
2017-07-21T17:38:12.812Z,5.37
2017-07-21T17:40:39.301Z,4.90
2017-07-21T17:43:05.778Z,5.03
2017-07-21T17:45:32.288Z,5.35
2017-07-21T17:47:58.770Z,5.00
2017-07-21T17:50:25.814Z,5.20
2017-07-21T17:52:52.324Z,5.30
2017-07-21T17:55:25.801Z,5.20
2017-07-21T17:57:52.224Z,5.62
2017-07-21T18:00:19.393Z,5.20
2017-07-21T18:02:46.541Z,5.57
2017-07-21T18:05:13.137Z,5.85
2017-07-21T18:07:40.292Z,5.50
2017-07-21T18:10:07.497Z,6.00
2017-07-21T18:12:34.040Z,6.07
2017-07-21T18:15:00.601Z,6.32
2017-07-21T18:17:27.079Z,5.45
2017-07-21T18:19:53.613Z,5.45
2017-07-21T18:22:20.171Z,5.80
2017-07-21T18:24:46.597Z,5.70
2017-07-21T18:27:13.113Z,6.03
2017-07-21T18:29:39.624Z,6.10
2017-07-21T18:32:07.017Z,6.30
2017-07-21T18:34:33.461Z,6.20
2017-07-21T18:37:00.655Z,6.20
2017-07-21T18:39:27.137Z,5.85
2017-07-21T18:41:53.663Z,6.00
2017-07-21T18:44:20.124Z,5.80
2017-07-21T18:46:47.109Z,6.40
2017-07-21T18:49:13.644Z,5.70
2017-07-21T18:51:40.118Z,6.00
2017-07-21T18:54:06.664Z,5.70
2017-07-21T18:56:33.178Z,6.22
2017-07-21T18:58:59.606Z,6.90
2017-07-21T19:01:26.029Z,6.20
2017-07-21T19:03:52.468Z,6.37
2017-07-21T19:06:19.668Z,6.00
2017-07-21T19:08:46.658Z,6.10
2017-07-21T19:11:13.128Z,6.15
2017-07-21T19:13:39.582Z,6.50
2017-07-21T19:16:06.050Z,6.50
2017-07-21T19:18:32.534Z,6.40
2017-07-21T19:20:59.754Z,6.70
2017-07-21T19:23:26.250Z,6.00
2017-07-21T19:25:52.703Z,6.65
2017-07-21T19:28:19.219Z,7.12
2017-07-21T19:30:45.640Z,6.60
2017-07-21T19:33:12.860Z,6.70
2017-07-21T19:35:39.326Z,6.30
2017-07-21T19:38:05.773Z,6.10
2017-07-21T19:40:32.704Z,7.00
2017-07-21T19:42:59.145Z,6.85
2017-07-21T19:45:27.081Z,6.57
2017-07-21T19:47:53.509Z,6.72
2017-07-21T19:50:19.981Z,6.80
2017-07-21T19:52:46.410Z,7.45
2017-07-21T19:55:13.579Z,7.12
2017-07-21T19:57:40.751Z,6.55
2017-07-21T20:00:09.997Z,6.80
2017-07-21T20:02:36.454Z,6.82
2017-07-21T20:05:02.934Z,6.70
2017-07-21T20:07:29.957Z,6.85
2017-07-21T20:09:57.136Z,6.57
2017-07-21T20:12:23.612Z,7.12
2017-07-21T20:14:50.148Z,6.90
2017-07-21T20:17:16.640Z,7.05
2017-07-21T20:19:43.177Z,7.20
2017-07-21T20:22:09.643Z,6.78
2017-07-21T20:24:36.178Z,6.97
2017-07-21T20:27:02.630Z,6.85
2017-07-21T20:29:29.912Z,6.70
2017-07-21T20:31:57.102Z,7.53
2017-07-21T20:34:24.121Z,7.00
2017-07-21T20:36:51.365Z,6.97
2017-07-21T20:39:18.426Z,7.43
2017-07-21T20:41:44.951Z,7.30
2017-07-21T20:44:11.441Z,7.10
2017-07-21T20:46:37.876Z,7.55
2017-07-21T20:49:04.315Z,7.32
2017-07-21T20:51:30.889Z,7.18
2017-07-21T20:53:58.407Z,7.30
2017-07-21T20:56:24.859Z,7.40
2017-07-21T20:58:51.340Z,7.45
2017-07-21T21:01:17.801Z,7.10
2017-07-21T21:03:44.242Z,7.70
2017-07-21T21:06:10.844Z,6.60
2017-07-21T21:08:37.366Z,7.50
2017-07-21T21:11:04.288Z,6.43
2017-07-21T21:13:30.838Z,6.90
2017-07-21T21:15:57.851Z,7.07
2017-07-21T21:18:24.304Z,6.70
2017-07-21T21:20:50.808Z,7.32
2017-07-21T21:23:32.196Z,7.47
2017-07-21T21:25:59.394Z,7.60
2017-07-21T21:28:25.825Z,7.30
2017-07-21T21:30:53.406Z,7.50
2017-07-21T21:33:19.884Z,7.68
2017-07-21T21:35:46.333Z,7.70
2017-07-21T21:38:12.791Z,7.60
2017-07-21T21:40:39.790Z,7.57
2017-07-21T21:43:06.242Z,7.62
2017-07-21T21:45:33.177Z,7.10
2017-07-21T21:47:59.725Z,7.30
2017-07-21T21:50:29.475Z,7.70
2017-07-21T21:52:56.011Z,7.80
2017-07-21T21:55:22.465Z,7.28
2017-07-21T21:57:48.964Z,8.10
2017-07-21T22:00:15.395Z,7.30
2017-07-21T22:02:41.941Z,7.77
2017-07-21T22:05:08.400Z,8.13
2017-07-21T22:07:34.835Z,7.40
2017-07-21T22:10:02.041Z,7.28
2017-07-21T22:12:28.456Z,7.80
2017-07-21T22:14:55.664Z,7.00
2017-07-21T22:17:22.116Z,7.45
2017-07-21T22:19:48.606Z,7.05
2017-07-21T22:22:15.078Z,7.60
2017-07-21T22:24:41.510Z,7.82
2017-07-21T22:27:08.036Z,7.37
2017-07-21T22:29:34.496Z,8.15
2017-07-21T22:32:00.972Z,7.00
2017-07-21T22:34:27.442Z,7.30
2017-07-21T22:36:54.720Z,7.50
2017-07-21T22:39:21.184Z,7.32
2017-07-21T22:41:47.644Z,7.32
2017-07-21T22:44:14.079Z,7.68
2017-07-21T22:46:41.111Z,7.90
2017-07-21T22:49:08.332Z,9.10
2017-07-21T22:51:34.779Z,9.00
2017-07-21T22:54:01.253Z,9.40
2017-07-21T22:56:27.761Z,8.98
2017-07-21T22:58:54.258Z,9.38
2017-07-21T23:01:20.737Z,9.07
2017-07-21T23:03:47.194Z,9.32
2017-07-21T23:06:13.691Z,9.05
2017-07-21T23:08:40.164Z,9.73
2017-07-21T23:11:06.615Z,9.77
2017-07-21T23:13:33.744Z,9.00
2017-07-21T23:16:00.216Z,9.00
2017-07-21T23:18:27.426Z,9.90
2017-07-21T23:20:53.874Z,10.30
2017-07-21T23:23:20.331Z,9.80
2017-07-21T23:25:46.794Z,9.70
2017-07-21T23:28:13.250Z,9.75
2017-07-21T23:30:40.091Z,10.40
2017-07-21T23:33:06.541Z,10.90
2017-07-21T23:35:33.747Z,11.12
2017-07-21T23:38:00.226Z,11.05
2017-07-21T23:40:26.696Z,10.85
2017-07-21T23:42:53.915Z,11.02
2017-07-21T23:45:20.363Z,11.55
2017-07-21T23:47:46.917Z,10.88
2017-07-21T23:50:13.386Z,11.82
2017-07-21T23:52:40.354Z,10.90
2017-07-21T23:55:06.819Z,11.43
2017-07-21T23:57:33.293Z,11.10
2017-07-21T23:59:59.770Z,11.07
